sensor_id;sensor_type;location;lat;lon;timestamp;pressure;altitude;pressure_sealevel;temperature;humidity
52105;BME280;38103;42.776;23.112;2023-04-25T00:01:03;93205.41;;;8.84;100.00
52105;BME280;38103;42.776;23.112;2023-04-25T00:03:30;93194.09;;;8.83;100.00
52105;BME280;38103;42.776;23.112;2023-04-25T00:05:55;93200.00;;;8.91;100.00
52105;BME280;38103;42.776;23.112;2023-04-25T00:08:22;93154.34;;;8.68;100.00
52105;BME280;38103;42.776;23.112;2023-04-25T00:10:47;93168.22;;;8.80;100.00
52105;BME280;38103;42.776;23.112;2023-04-25T00:13:14;93211.31;;;9.09;100.00
52105;BME280;38103;42.776;23.112;2023-04-25T00:15:42;93189.75;;;8.94;100.00
52105;BME280;38103;42.776;23.112;2023-04-25T00:18:07;93210.69;;;9.01;100.00
52105;BME280;38103;42.776;23.112;2023-04-25T00:20:35;93169.81;;;8.81;100.00
52105;BME280;38103;42.776;23.112;2023-04-25T00:23:00;93199.69;;;9.10;100.00
52105;BME280;38103;42.776;23.112;2023-04-25T00:25:26;93193.25;;;9.00;100.00
52105;BME280;38103;42.776;23.112;2023-04-25T00:27:51;93207.78;;;9.03;100.00
52105;BME280;38103;42.776;23.112;2023-04-25T00:30:16;93195.34;;;8.98;100.00
52105;BME280;38103;42.776;23.112;2023-04-25T00:32:42;93178.75;;;8.80;100.00
52105;BME280;38103;42.776;23.112;2023-04-25T00:35:09;93168.22;;;8.80;100.00
52105;BME280;38103;42.776;23.112;2023-04-25T00:37:34;93193.59;;;8.87;100.00
52105;BME280;38103;42.776;23.112;2023-04-25T00:40:00;93198.38;;;8.90;100.00
52105;BME280;38103;42.776;23.112;2023-04-25T00:42:25;93187.91;;;8.95;100.00
52105;BME280;38103;42.776;23.112;2023-04-25T00:44:52;93146.66;;;8.66;100.00
52105;BME280;38103;42.776;23.112;2023-04-25T00:47:18;93188.81;;;8.83;100.00
52105;BME280;38103;42.776;23.112;2023-04-25T00:49:43;93185.38;;;8.83;100.00
52105;BME280;38103;42.776;23.112;2023-04-25T00:52:09;93178.59;;;8.87;100.00
52105;BME280;38103;42.776;23.112;2023-04-25T00:54:35;93168.69;;;8.77;100.00
52105;BME280;38103;42.776;23.112;2023-04-25T00:57:01;93179.38;;;8.88;100.00
52105;BME280;38103;42.776;23.112;2023-04-25T00:59:27;93186.25;;;8.89;100.00
52105;BME280;38103;42.776;23.112;2023-04-25T01:01:53;93182.34;;;8.91;100.00
52105;BME280;38103;42.776;23.112;2023-04-25T01:04:18;93182.03;;;8.88;100.00
52105;BME280;38103;42.776;23.112;2023-04-25T01:06:44;93181.94;;;8.82;100.00
52105;BME280;38103;42.776;23.112;2023-04-25T01:09:10;93178.75;;;8.80;100.00
52105;BME280;38103;42.776;23.112;2023-04-25T01:11:36;93169.50;;;8.78;100.00
52105;BME280;38103;42.776;23.112;2023-04-25T01:14:01;93160.09;;;8.65;100.00
52105;BME280;38103;42.776;23.112;2023-04-25T01:16:27;93167.28;;;8.52;100.00
52105;BME280;38103;42.776;23.112;2023-04-25T01:18:53;93161.22;;;8.34;100.00
52105;BME280;38103;42.776;23.112;2023-04-25T01:21:19;93164.88;;;8.33;100.00
52105;BME280;38103;42.776;23.112;2023-04-25T01:23:44;93169.50;;;8.26;100.00
52105;BME280;38103;42.776;23.112;2023-04-25T01:26:11;93164.16;;;8.21;100.00
52105;BME280;38103;42.776;23.112;2023-04-25T01:28:38;93159.63;;;8.16;100.00
52105;BME280;38103;42.776;23.112;2023-04-25T01:31:06;93168.38;;;8.04;100.00
52105;BME280;38103;42.776;23.112;2023-04-25T01:33:32;93165.91;;;7.98;100.00
52105;BME280;38103;42.776;23.112;2023-04-25T01:35:58;93168.34;;;7.87;100.00
52105;BME280;38103;42.776;23.112;2023-04-25T01:38:23;93161.91;;;7.78;100.00
52105;BME280;38103;42.776;23.112;2023-04-25T01:40:50;93163.38;;;7.74;100.00
52105;BME280;38103;42.776;23.112;2023-04-25T01:43:16;93162.13;;;7.76;100.00
52105;BME280;38103;42.776;23.112;2023-04-25T01:45:41;93163.38;;;7.74;100.00
52105;BME280;38103;42.776;23.112;2023-04-25T01:48:08;93133.72;;;7.61;100.00
52105;BME280;38103;42.776;23.112;2023-04-25T01:50:34;93154.38;;;7.69;100.00
52105;BME280;38103;42.776;23.112;2023-04-25T01:52:59;93111.91;;;7.19;100.00
52105;BME280;38103;42.776;23.112;2023-04-25T01:55:25;93151.53;;;7.30;100.00
52105;BME280;38103;42.776;23.112;2023-04-25T01:57:51;93138.41;;;7.30;100.00
52105;BME280;38103;42.776;23.112;2023-04-25T02:00:16;93143.09;;;7.28;100.00
52105;BME280;38103;42.776;23.112;2023-04-25T02:02:42;93140.81;;;7.31;100.00
52105;BME280;38103;42.776;23.112;2023-04-25T02:05:07;93134.28;;;7.34;100.00
52105;BME280;38103;42.776;23.112;2023-04-25T02:07:33;93130.16;;;7.38;100.00
52105;BME280;38103;42.776;23.112;2023-04-25T02:09:58;93120.09;;;7.35;100.00
52105;BME280;38103;42.776;23.112;2023-04-25T02:12:23;93113.25;;;7.34;100.00
52105;BME280;38103;42.776;23.112;2023-04-25T02:14:51;93115.97;;;7.39;100.00
52105;BME280;38103;42.776;23.112;2023-04-25T02:17:16;93117.56;;;7.40;100.00
52105;BME280;38103;42.776;23.112;2023-04-25T02:19:43;93076.66;;;6.62;100.00
52105;BME280;38103;42.776;23.112;2023-04-25T02:22:08;93112.59;;;6.85;100.00
52105;BME280;38103;42.776;23.112;2023-04-25T02:24:33;93117.97;;;6.78;100.00
52105;BME280;38103;42.776;23.112;2023-04-25T02:27:00;93116.84;;;6.74;100.00
52105;BME280;38103;42.776;23.112;2023-04-25T02:29:25;93105.00;;;6.59;100.00
52105;BME280;38103;42.776;23.112;2023-04-25T02:31:51;93098.59;;;6.55;100.00
52105;BME280;38103;42.776;23.112;2023-04-25T02:34:16;93104.16;;;6.71;100.00
52105;BME280;38103;42.776;23.112;2023-04-25T02:36:42;93098.66;;;6.73;100.00
52105;BME280;38103;42.776;23.112;2023-04-25T02:39:07;93096.06;;;6.61;100.00
52105;BME280;38103;42.776;23.112;2023-04-25T02:41:33;93088.09;;;6.55;100.00
52105;BME280;38103;42.776;23.112;2023-04-25T02:43:58;93093.13;;;6.45;100.00
52105;BME280;38103;42.776;23.112;2023-04-25T02:46:23;93092.00;;;6.41;100.00
52105;BME280;38103;42.776;23.112;2023-04-25T02:48:49;93097.56;;;6.32;100.00
52105;BME280;38103;42.776;23.112;2023-04-25T02:51:14;93096.13;;;6.36;100.00
52105;BME280;38103;42.776;23.112;2023-04-25T02:53:41;93100.31;;;6.37;100.00
52105;BME280;38103;42.776;23.112;2023-04-25T02:56:07;93068.38;;;6.17;100.00
52105;BME280;38103;42.776;23.112;2023-04-25T02:58:32;93082.16;;;6.24;100.00
52105;BME280;38103;42.776;23.112;2023-04-25T03:00:58;93094.94;;;6.32;100.00
52105;BME280;38103;42.776;23.112;2023-04-25T03:03:23;93088.78;;;6.14;100.00
52105;BME280;38103;42.776;23.112;2023-04-25T03:05:49;93091.97;;;6.17;100.00
52105;BME280;38103;42.776;23.112;2023-04-25T03:08:16;93093.47;;;6.24;100.00
52105;BME280;38103;42.776;23.112;2023-04-25T03:10:41;93086.97;;;6.27;100.00
52105;BME280;38103;42.776;23.112;2023-04-25T03:13:07;93090.63;;;6.26;100.00
52105;BME280;38103;42.776;23.112;2023-04-25T03:15:32;93088.00;;;6.38;100.00
52105;BME280;38103;42.776;23.112;2023-04-25T03:17:58;93087.41;;;6.48;100.00
52105;BME280;38103;42.776;23.112;2023-04-25T03:20:23;93088.81;;;6.39;100.00
52105;BME280;38103;42.776;23.112;2023-04-25T03:22:49;93092.31;;;6.32;100.00
52105;BME280;38103;42.776;23.112;2023-04-25T03:25:14;93084.44;;;6.44;100.00
52105;BME280;38103;42.776;23.112;2023-04-25T03:27:39;93082.28;;;6.41;100.00
52105;BME280;38103;42.776;23.112;2023-04-25T03:30:05;93076.91;;;6.48;100.00
52105;BME280;38103;42.776;23.112;2023-04-25T03:32:31;93077.72;;;6.48;100.00
52105;BME280;38103;42.776;23.112;2023-04-25T03:34:57;93085.09;;;6.64;100.00
52105;BME280;38103;42.776;23.112;2023-04-25T03:37:22;93040.38;;;6.34;100.00
52105;BME280;38103;42.776;23.112;2023-04-25T03:39:48;93084.50;;;6.74;100.00
52105;BME280;38103;42.776;23.112;2023-04-25T03:42:13;93080.72;;;6.81;100.00
52105;BME280;38103;42.776;23.112;2023-04-25T03:44:38;93083.66;;;6.97;100.00
52105;BME280;38103;42.776;23.112;2023-04-25T03:47:04;93080.31;;;7.02;100.00
52105;BME280;38103;42.776;23.112;2023-04-25T03:49:29;93067.69;;;6.87;100.00
52105;BME280;38103;42.776;23.112;2023-04-25T03:51:55;93073.81;;;7.04;100.00
52105;BME280;38103;42.776;23.112;2023-04-25T03:54:20;93057.84;;;6.94;100.00
52105;BME280;38103;42.776;23.112;2023-04-25T03:56:45;93066.09;;;7.15;100.00
52105;BME280;38103;42.776;23.112;2023-04-25T03:59:11;93062.16;;;7.30;100.00
52105;BME280;38103;42.776;23.112;2023-04-25T04:01:36;93058.69;;;7.58;100.00
52105;BME280;38103;42.776;23.112;2023-04-25T04:04:02;93050.50;;;7.89;100.00
52105;BME280;38103;42.776;23.112;2023-04-25T04:06:27;93053.03;;;8.19;100.00
52105;BME280;38103;42.776;23.112;2023-04-25T04:08:53;93042.16;;;8.32;100.00
52105;BME280;38103;42.776;23.112;2023-04-25T04:11:19;93043.59;;;8.23;100.00
52105;BME280;38103;42.776;23.112;2023-04-25T04:13:45;93075.19;;;8.23;100.00
52105;BME280;38103;42.776;23.112;2023-04-25T04:16:11;93084.41;;;8.43;100.00
52105;BME280;38103;42.776;23.112;2023-04-25T04:18:36;93083.63;;;8.59;100.00
52105;BME280;38103;42.776;23.112;2023-04-25T04:21:02;93063.09;;;8.22;100.00
52105;BME280;38103;42.776;23.112;2023-04-25T04:23:27;93085.34;;;8.14;100.00
52105;BME280;38103;42.776;23.112;2023-04-25T04:25:54;93078.41;;;7.90;100.00
52105;BME280;38103;42.776;23.112;2023-04-25T04:28:20;93083.28;;;7.99;100.00
52105;BME280;38103;42.776;23.112;2023-04-25T04:30:45;93073.63;;;7.87;100.00
52105;BME280;38103;42.776;23.112;2023-04-25T04:33:11;93082.22;;;8.00;100.00
52105;BME280;38103;42.776;23.112;2023-04-25T04:35:37;93079.34;;;8.19;100.00
52105;BME280;38103;42.776;23.112;2023-04-25T04:38:03;93082.22;;;8.34;100.00
52105;BME280;38103;42.776;23.112;2023-04-25T04:40:28;93095.13;;;8.36;100.00
52105;BME280;38103;42.776;23.112;2023-04-25T04:42:55;93082.50;;;8.38;100.00
52105;BME280;38103;42.776;23.112;2023-04-25T04:45:22;93040.00;;;8.29;100.00
52105;BME280;38103;42.776;23.112;2023-04-25T04:47:48;93105.31;;;8.67;100.00
52105;BME280;38103;42.776;23.112;2023-04-25T04:50:13;93091.72;;;8.75;100.00
52105;BME280;38103;42.776;23.112;2023-04-25T04:52:40;93093.31;;;8.76;100.00
52105;BME280;38103;42.776;23.112;2023-04-25T04:55:05;93090.56;;;8.88;100.00
52105;BME280;38103;42.776;23.112;2023-04-25T04:57:31;93079.16;;;8.82;100.00
52105;BME280;38103;42.776;23.112;2023-04-25T04:59:58;93101.34;;;9.09;100.00
52105;BME280;38103;42.776;23.112;2023-04-25T05:02:23;93110.72;;;9.22;100.00
52105;BME280;38103;42.776;23.112;2023-04-25T05:04:49;93100.06;;;9.12;100.00
52105;BME280;38103;42.776;23.112;2023-04-25T05:07:15;93114.03;;;9.35;100.00
52105;BME280;38103;42.776;23.112;2023-04-25T05:09:40;93118.41;;;9.52;100.00
52105;BME280;38103;42.776;23.112;2023-04-25T05:12:06;93119.63;;;9.66;100.00
52105;BME280;38103;42.776;23.112;2023-04-25T05:14:33;93118.63;;;9.72;100.00
52105;BME280;38103;42.776;23.112;2023-04-25T05:16:58;93115.31;;;9.88;100.00
52105;BME280;38103;42.776;23.112;2023-04-25T05:19:24;93112.00;;;10.03;100.00
52105;BME280;38103;42.776;23.112;2023-04-25T05:21:50;93112.00;;;10.03;100.00
52105;BME280;38103;42.776;23.112;2023-04-25T05:24:15;93107.28;;;10.10;100.00
52105;BME280;38103;42.776;23.112;2023-04-25T05:26:41;93101.44;;;10.03;100.00
52105;BME280;38103;42.776;23.112;2023-04-25T05:29:06;93097.84;;;10.14;100.00
52105;BME280;38103;42.776;23.112;2023-04-25T05:31:32;93101.44;;;10.03;100.00
52105;BME280;38103;42.776;23.112;2023-04-25T05:33:58;93103.13;;;10.14;100.00
52105;BME280;38103;42.776;23.112;2023-04-25T05:36:23;93099.41;;;10.15;100.00
52105;BME280;38103;42.776;23.112;2023-04-25T05:38:48;93108.91;;;10.11;100.00
52105;BME280;38103;42.776;23.112;2023-04-25T05:41:14;93109.31;;;9.98;100.00
52105;BME280;38103;42.776;23.112;2023-04-25T05:43:39;93109.22;;;10.15;100.00
52105;BME280;38103;42.776;23.112;2023-04-25T05:46:10;93115.78;;;10.12;100.00
52105;BME280;38103;42.776;23.112;2023-04-25T05:48:35;93111.31;;;9.85;100.00
52105;BME280;38103;42.776;23.112;2023-04-25T05:51:01;93110.63;;;9.95;100.00
52105;BME280;38103;42.776;23.112;2023-04-25T05:53:27;93113.69;;;10.14;100.00
52105;BME280;38103;42.776;23.112;2023-04-25T05:55:52;93108.97;;;10.22;100.00
52105;BME280;38103;42.776;23.112;2023-04-25T05:58:17;93092.91;;;10.28;100.00
52105;BME280;38103;42.776;23.112;2023-04-25T06:00:43;93078.34;;;10.26;100.00
52105;BME280;38103;42.776;23.112;2023-04-25T06:03:08;93109.22;;;10.53;100.00
52105;BME280;38103;42.776;23.112;2023-04-25T06:05:35;93090.75;;;10.58;100.00
52105;BME280;38103;42.776;23.112;2023-04-25T06:08:00;93110.47;;;10.89;100.00
52105;BME280;38103;42.776;23.112;2023-04-25T06:10:26;93095.66;;;10.93;100.00
52105;BME280;38103;42.776;23.112;2023-04-25T06:12:51;93078.19;;;10.81;100.00
52105;BME280;38103;42.776;23.112;2023-04-25T06:15:17;93102.66;;;11.15;100.00
52105;BME280;38103;42.776;23.112;2023-04-25T06:17:42;93107.22;;;11.40;100.00
52105;BME280;38103;42.776;23.112;2023-04-25T06:20:08;93115.97;;;11.41;100.00
52105;BME280;38103;42.776;23.112;2023-04-25T06:22:34;93113.38;;;11.62;100.00
52105;BME280;38103;42.776;23.112;2023-04-25T06:24:59;93106.47;;;11.66;100.00
52105;BME280;38103;42.776;23.112;2023-04-25T06:27:25;93109.69;;;11.89;100.00
52105;BME280;38103;42.776;23.112;2023-04-25T06:29:50;93117.66;;;12.05;100.00
52105;BME280;38103;42.776;23.112;2023-04-25T06:32:16;93116.56;;;12.11;100.00
52105;BME280;38103;42.776;23.112;2023-04-25T06:34:43;93115.56;;;12.17;100.00
52105;BME280;38103;42.776;23.112;2023-04-25T06:37:08;93117.69;;;12.26;100.00
52105;BME280;38103;42.776;23.112;2023-04-25T06:39:33;93112.38;;;12.26;100.00
52105;BME280;38103;42.776;23.112;2023-04-25T06:42:00;93117.69;;;12.36;100.00
52105;BME280;38103;42.776;23.112;2023-04-25T06:44:25;93119.78;;;12.45;100.00
52105;BME280;38103;42.776;23.112;2023-04-25T06:46:51;93125.34;;;12.48;100.00
52105;BME280;38103;42.776;23.112;2023-04-25T06:49:17;93128.53;;;12.40;100.00
52105;BME280;38103;42.776;23.112;2023-04-25T06:51:42;93116.09;;;12.30;100.00
52105;BME280;38103;42.776;23.112;2023-04-25T06:54:07;93119.81;;;12.34;100.00
52105;BME280;38103;42.776;23.112;2023-04-25T06:56:33;93116.59;;;12.27;100.00
52105;BME280;38103;42.776;23.112;2023-04-25T06:58:58;93118.22;;;12.23;100.00
52105;BME280;38103;42.776;23.112;2023-04-25T07:01:25;93123.00;;;12.26;100.00
52105;BME280;38103;42.776;23.112;2023-04-25T07:03:50;93126.69;;;12.46;100.00
52105;BME280;38103;42.776;23.112;2023-04-25T07:06:16;93125.34;;;12.27;100.00
52105;BME280;38103;42.776;23.112;2023-04-25T07:08:41;93097.00;;;12.38;100.00
52105;BME280;38103;42.776;23.112;2023-04-25T07:11:07;93117.00;;;13.02;100.00
52105;BME280;38103;42.776;23.112;2023-04-25T07:13:32;93122.50;;;13.27;100.00
52105;BME280;38103;42.776;23.112;2023-04-25T07:15:57;93117.34;;;13.51;100.00
52105;BME280;38103;42.776;23.112;2023-04-25T07:18:23;93112.53;;;13.59;100.00
52105;BME280;38103;42.776;23.112;2023-04-25T07:20:48;93114.69;;;13.57;100.00
52105;BME280;38103;42.776;23.112;2023-04-25T07:23:14;93113.63;;;13.52;100.00
52105;BME280;38103;42.776;23.112;2023-04-25T07:25:39;93108.44;;;13.26;100.00
52105;BME280;38103;42.776;23.112;2023-04-25T07:28:04;93112.66;;;13.27;100.00
52105;BME280;38103;42.776;23.112;2023-04-25T07:30:30;93072.91;;;13.17;100.00
52105;BME280;38103;42.776;23.112;2023-04-25T07:32:55;93108.84;;;13.55;100.00
52105;BME280;38103;42.776;23.112;2023-04-25T07:35:21;93108.22;;;13.73;100.00
52105;BME280;38103;42.776;23.112;2023-04-25T07:37:46;93112.63;;;13.94;100.00
52105;BME280;38103;42.776;23.112;2023-04-25T07:40:12;93105.22;;;13.85;100.00
52105;BME280;38103;42.776;23.112;2023-04-25T07:42:37;93109.63;;;14.01;100.00
52105;BME280;38103;42.776;23.112;2023-04-25T07:45:03;93109.06;;;14.09;100.00
52105;BME280;38103;42.776;23.112;2023-04-25T07:47:28;93105.69;;;14.28;100.00
52105;BME280;38103;42.776;23.112;2023-04-25T07:49:54;93103.44;;;14.11;100.00
52105;BME280;38103;42.776;23.112;2023-04-25T07:52:19;93097.41;;;14.35;100.00
52105;BME280;38103;42.776;23.112;2023-04-25T07:54:45;93095.97;;;14.48;100.00
52105;BME280;38103;42.776;23.112;2023-04-25T07:57:10;93076.22;;;14.54;100.00
52105;BME280;38103;42.776;23.112;2023-04-25T07:59:35;93097.84;;;14.72;100.00
52105;BME280;38103;42.776;23.112;2023-04-25T08:02:01;93098.31;;;14.79;100.00
52105;BME280;38103;42.776;23.112;2023-04-25T08:04:27;93069.88;;;14.50;100.00
52105;BME280;38103;42.776;23.112;2023-04-25T08:06:53;93094.94;;;14.73;100.00
52105;BME280;38103;42.776;23.112;2023-04-25T08:09:21;93097.84;;;14.72;100.00
52105;BME280;38103;42.776;23.112;2023-04-25T08:11:47;93101.06;;;14.74;100.00
52105;BME280;38103;42.776;23.112;2023-04-25T08:14:13;93095.19;;;14.72;100.00
52105;BME280;38103;42.776;23.112;2023-04-25T08:16:39;93068.38;;;14.38;100.00
52105;BME280;38103;42.776;23.112;2023-04-25T08:19:05;93064.31;;;14.46;100.00
52105;BME280;38103;42.776;23.112;2023-04-25T08:21:30;93066.09;;;14.56;100.00
52105;BME280;38103;42.776;23.112;2023-04-25T08:23:57;93068.44;;;14.33;100.00
52105;BME280;38103;42.776;23.112;2023-04-25T08:26:26;93074.16;;;14.46;100.00
52105;BME280;38103;42.776;23.112;2023-04-25T08:28:51;93079.63;;;14.60;100.00
52105;BME280;38103;42.776;23.112;2023-04-25T08:31:17;93072.94;;;14.62;96.17
52105;BME280;38103;42.776;23.112;2023-04-25T08:33:42;93081.56;;;14.79;82.66
52105;BME280;38103;42.776;23.112;2023-04-25T08:36:08;93073.41;;;14.70;88.40
52105;BME280;38103;42.776;23.112;2023-04-25T08:38:34;93082.25;;;14.90;80.93
52105;BME280;38103;42.776;23.112;2023-04-25T08:41:00;93083.44;;;14.78;74.59
52105;BME280;38103;42.776;23.112;2023-04-25T08:43:29;93067.09;;;15.15;81.38
52105;BME280;38103;42.776;23.112;2023-04-25T08:46:00;93061.81;;;15.53;78.11
52105;BME280;38103;42.776;23.112;2023-04-25T08:48:32;93070.00;;;15.77;72.22
52105;BME280;38103;42.776;23.112;2023-04-25T08:50:58;93070.16;;;16.05;74.37
52105;BME280;38103;42.776;23.112;2023-04-25T08:53:32;93060.06;;;16.49;71.90
52105;BME280;38103;42.776;23.112;2023-04-25T08:55:59;93054.53;;;16.46;60.33
52105;BME280;38103;42.776;23.112;2023-04-25T08:58:25;93061.78;;;16.59;60.96
52105;BME280;38103;42.776;23.112;2023-04-25T09:00:51;92997.28;;;16.24;64.25
52105;BME280;38103;42.776;23.112;2023-04-25T09:03:17;93072.41;;;16.31;67.88
52105;BME280;38103;42.776;23.112;2023-04-25T09:05:43;93065.94;;;15.98;69.11
52105;BME280;38103;42.776;23.112;2023-04-25T09:08:09;93059.97;;;15.49;70.79
52105;BME280;38103;42.776;23.112;2023-04-25T09:10:34;93054.28;;;15.17;74.65
52105;BME280;38103;42.776;23.112;2023-04-25T09:13:10;93064.06;;;15.02;83.67
52105;BME280;38103;42.776;23.112;2023-04-25T09:15:51;93061.47;;;15.16;79.91
52105;BME280;38103;42.776;23.112;2023-04-25T09:20:51;93055.81;;;15.62;72.48
52105;BME280;38103;42.776;23.112;2023-04-25T09:23:18;93054.03;;;15.77;70.68
52105;BME280;38103;42.776;23.112;2023-04-25T09:25:47;93051.19;;;15.87;67.35
52105;BME280;38103;42.776;23.112;2023-04-25T09:28:13;93045.63;;;16.03;68.42
52105;BME280;38103;42.776;23.112;2023-04-25T09:30:38;93055.56;;;16.16;64.26
52105;BME280;38103;42.776;23.112;2023-04-25T09:33:11;93045.44;;;16.47;65.48
52105;BME280;38103;42.776;23.112;2023-04-25T09:35:42;93036.19;;;16.58;63.92
52105;BME280;38103;42.776;23.112;2023-04-25T09:38:13;93041.31;;;16.69;59.74
52105;BME280;38103;42.776;23.112;2023-04-25T09:40:42;93038.56;;;16.74;53.53
52105;BME280;38103;42.776;23.112;2023-04-25T09:43:10;93034.50;;;16.91;55.51
52105;BME280;38103;42.776;23.112;2023-04-25T09:45:41;93033.81;;;17.13;52.97
52105;BME280;38103;42.776;23.112;2023-04-25T09:48:11;93032.72;;;17.28;55.21
52105;BME280;38103;42.776;23.112;2023-04-25T09:50:37;93044.75;;;17.40;53.27
52105;BME280;38103;42.776;23.112;2023-04-25T09:53:04;93043.00;;;17.35;52.48
52105;BME280;38103;42.776;23.112;2023-04-25T09:55:31;93046.19;;;17.23;52.12
52105;BME280;38103;42.776;23.112;2023-04-25T09:58:03;93020.66;;;16.89;48.21
52105;BME280;38103;42.776;23.112;2023-04-25T10:00:30;93060.13;;;17.06;49.91
52105;BME280;38103;42.776;23.112;2023-04-25T10:02:57;93067.16;;;16.88;50.19
52105;BME280;38103;42.776;23.112;2023-04-25T10:05:24;93086.50;;;16.79;51.35
52105;BME280;38103;42.776;23.112;2023-04-25T10:07:51;93059.31;;;16.15;54.82
52105;BME280;38103;42.776;23.112;2023-04-25T10:10:17;93111.81;;;15.37;57.13
52105;BME280;38103;42.776;23.112;2023-04-25T10:12:45;93105.19;;;14.85;61.01
52105;BME280;38103;42.776;23.112;2023-04-25T10:15:10;93108.81;;;14.40;65.73
52105;BME280;38103;42.776;23.112;2023-04-25T10:17:38;93088.84;;;13.73;72.71
52105;BME280;38103;42.776;23.112;2023-04-25T10:20:04;93116.31;;;13.47;75.34
52105;BME280;38103;42.776;23.112;2023-04-25T10:22:46;93104.25;;;13.10;81.39
52105;BME280;38103;42.776;23.112;2023-04-25T10:25:13;93104.28;;;12.94;86.70
52105;BME280;38103;42.776;23.112;2023-04-25T10:27:39;93096.91;;;12.85;90.54
52105;BME280;38103;42.776;23.112;2023-04-25T10:30:13;93087.38;;;12.79;92.93
52105;BME280;38103;42.776;23.112;2023-04-25T10:32:41;93088.97;;;12.80;100.00
52105;BME280;38103;42.776;23.112;2023-04-25T10:35:18;93075.34;;;13.03;100.00
52105;BME280;38103;42.776;23.112;2023-04-25T10:40:25;93067.94;;;13.50;100.00
52105;BME280;38103;42.776;23.112;2023-04-25T10:42:54;93068.00;;;13.91;100.00
52105;BME280;38103;42.776;23.112;2023-04-25T10:45:21;93056.28;;;14.27;97.45
52105;BME280;38103;42.776;23.112;2023-04-25T10:47:46;93048.50;;;14.60;89.43
52105;BME280;38103;42.776;23.112;2023-04-25T10:50:14;93050.31;;;14.90;90.81
52105;BME280;38103;42.776;23.112;2023-04-25T10:52:41;93035.16;;;15.15;91.37
52105;BME280;38103;42.776;23.112;2023-04-25T10:55:07;93040.84;;;15.47;88.83
52105;BME280;38103;42.776;23.112;2023-04-25T10:57:42;92999.59;;;15.44;78.15
52105;BME280;38103;42.776;23.112;2023-04-25T11:00:16;93040.25;;;15.89;73.45
52105;BME280;38103;42.776;23.112;2023-04-25T11:05:20;93008.31;;;16.03;71.71
52105;BME280;38103;42.776;23.112;2023-04-25T11:07:52;93034.72;;;16.18;67.78
52105;BME280;38103;42.776;23.112;2023-04-25T11:10:19;93038.56;;;16.12;68.43
52105;BME280;38103;42.776;23.112;2023-04-25T11:12:46;93034.75;;;15.99;65.09
52105;BME280;38103;42.776;23.112;2023-04-25T11:15:12;93042.19;;;15.83;64.13
52105;BME280;38103;42.776;23.112;2023-04-25T11:17:38;93009.09;;;15.50;64.75
52105;BME280;38103;42.776;23.112;2023-04-25T11:20:06;93031.25;;;15.65;65.63
52105;BME280;38103;42.776;23.112;2023-04-25T11:22:34;93022.69;;;15.68;70.11
52105;BME280;38103;42.776;23.112;2023-04-25T11:25:04;93015.84;;;15.62;67.40
52105;BME280;38103;42.776;23.112;2023-04-25T11:27:30;93008.13;;;15.80;62.69
52105;BME280;38103;42.776;23.112;2023-04-25T11:29:56;93010.44;;;16.01;69.77
52105;BME280;38103;42.776;23.112;2023-04-25T11:32:21;93001.06;;;16.23;68.17
52105;BME280;38103;42.776;23.112;2023-04-25T11:34:47;92974.78;;;16.30;62.60
52105;BME280;38103;42.776;23.112;2023-04-25T11:37:12;92997.75;;;16.59;61.49
52105;BME280;38103;42.776;23.112;2023-04-25T11:39:43;92992.69;;;16.72;53.34
52105;BME280;38103;42.776;23.112;2023-04-25T11:42:10;92982.13;;;16.67;57.48
52105;BME280;38103;42.776;23.112;2023-04-25T11:44:38;92978.84;;;16.84;61.92
52105;BME280;38103;42.776;23.112;2023-04-25T11:47:03;92980.13;;;16.86;57.92
52105;BME280;38103;42.776;23.112;2023-04-25T11:49:32;92975.38;;;16.83;56.57
52105;BME280;38103;42.776;23.112;2023-04-25T11:51:57;92987.16;;;16.82;63.47
52105;BME280;38103;42.776;23.112;2023-04-25T11:54:23;92991.09;;;16.99;61.19
52105;BME280;38103;42.776;23.112;2023-04-25T11:56:48;93029.78;;;17.16;57.75
52105;BME280;38103;42.776;23.112;2023-04-25T11:59:13;93021.56;;;16.84;62.89
52105;BME280;38103;42.776;23.112;2023-04-25T12:01:41;93030.16;;;15.85;69.18
52105;BME280;38103;42.776;23.112;2023-04-25T12:04:11;93042.28;;;14.95;76.69
52105;BME280;38103;42.776;23.112;2023-04-25T12:06:38;93052.34;;;14.49;81.25
52105;BME280;38103;42.776;23.112;2023-04-25T12:09:11;93055.97;;;13.99;83.35
52105;BME280;38103;42.776;23.112;2023-04-25T12:11:44;93056.78;;;13.54;90.27
52105;BME280;38103;42.776;23.112;2023-04-25T12:14:11;93048.41;;;13.30;93.21
52105;BME280;38103;42.776;23.112;2023-04-25T12:16:44;93059.38;;;13.18;94.14
52105;BME280;38103;42.776;23.112;2023-04-25T12:19:13;93043.22;;;13.10;99.56
52105;BME280;38103;42.776;23.112;2023-04-25T12:21:39;93066.44;;;13.39;95.89
52105;BME280;38103;42.776;23.112;2023-04-25T12:29:26;93058.41;;;13.49;100.00
52105;BME280;38103;42.776;23.112;2023-04-25T12:31:53;93061.25;;;13.63;94.85
52105;BME280;38103;42.776;23.112;2023-04-25T12:34:20;93053.25;;;13.69;95.79
52105;BME280;38103;42.776;23.112;2023-04-25T12:36:46;93044.00;;;13.61;94.31
52105;BME280;38103;42.776;23.112;2023-04-25T12:39:19;93038.69;;;13.56;92.85
52105;BME280;38103;42.776;23.112;2023-04-25T12:41:45;93047.50;;;13.51;91.30
52105;BME280;38103;42.776;23.112;2023-04-25T12:44:12;93051.25;;;13.50;91.02
52105;BME280;38103;42.776;23.112;2023-04-25T12:46:37;93056.56;;;13.50;91.28
52105;BME280;38103;42.776;23.112;2023-04-25T12:49:03;93058.19;;;13.40;89.18
52105;BME280;38103;42.776;23.112;2023-04-25T12:51:29;93058.44;;;13.44;89.53
52105;BME280;38103;42.776;23.112;2023-04-25T12:53:54;93055.22;;;13.52;90.53
52105;BME280;38103;42.776;23.112;2023-04-25T12:56:20;93067.13;;;13.60;84.35